Time;durP1;ratioP1;P1;durP2;ratioP2;P2;SDS_P1;SDS_P2;PMS_P1;PMS_P2;Temp;Humidity;BMP_temperature;BMP_pressure;BME280_temperature;BME280_humidity;BME280_pressure;Samples;Min_cycle;Max_cycle;Signal;HPM_P1;HPM_P2
2022/03/23 00:00:03;;;;;;;18.03;10.93;;;7.70;99.90;;;;;;5040892;28;20190;-81
2022/03/23 00:02:28;;;;;;;20.17;12.97;;;7.70;99.90;;;;;;5039667;28;20674;-81
2022/03/23 00:04:55;;;;;;;23.43;14.40;;;7.70;99.90;;;;;;5040671;28;20264;-81
2022/03/23 00:07:21;;;;;;;29.73;14.53;;;7.70;99.90;;;;;;5040123;28;20231;-81
2022/03/23 00:09:48;;;;;;;21.43;12.50;;;7.70;99.90;;;;;;5023363;28;20233;-80
2022/03/23 00:12:14;;;;;;;18.93;14.00;;;7.70;99.90;;;;;;5056622;28;20661;-81
2022/03/23 00:14:40;;;;;;;18.93;13.10;;;7.70;99.90;;;;;;5023704;28;20233;-81
2022/03/23 00:17:05;;;;;;;23.40;12.00;;;7.60;99.90;;;;;;5023243;28;20217;-81
2022/03/23 00:19:31;;;;;;;20.83;11.63;;;7.70;99.90;;;;;;5040381;28;20693;-80
2022/03/23 00:21:57;;;;;;;23.47;13.37;;;7.70;99.90;;;;;;5039994;28;20221;-81
2022/03/23 00:24:22;;;;;;;23.93;13.20;;;7.70;99.90;;;;;;5056516;28;21242;-81
2022/03/23 00:26:48;;;;;;;18.67;12.70;;;7.70;99.90;;;;;;5023496;28;20186;-81
2022/03/23 00:29:14;;;;;;;26.00;14.90;;;7.70;99.90;;;;;;5040029;28;20375;-81
2022/03/23 00:31:40;;;;;;;24.70;15.40;;;7.70;99.90;;;;;;5056711;28;20225;-81
2022/03/23 00:34:05;;;;;;;27.07;14.07;;;7.70;99.90;;;;;;5039348;28;20435;-81
2022/03/23 00:36:31;;;;;;;24.00;15.97;;;7.60;99.90;;;;;;5056945;28;20522;-81
2022/03/23 00:38:57;;;;;;;28.10;17.27;;;7.70;99.90;;;;;;5056457;28;20189;-81
2022/03/23 00:41:23;;;;;;;35.87;15.43;;;7.70;99.90;;;;;;5040002;28;20233;-81
2022/03/23 00:43:48;;;;;;;30.37;18.43;;;7.70;99.90;;;;;;5039787;28;20442;-81
2022/03/23 00:46:15;;;;;;;31.77;16.07;;;7.70;99.90;;;;;;5041446;28;20276;-80
2022/03/23 00:48:42;;;;;;;39.07;17.20;;;7.60;99.90;;;;;;5056353;28;20557;-81
2022/03/23 00:51:08;;;;;;;24.57;17.40;;;7.60;99.90;;;;;;5056829;28;20218;-81
2022/03/23 00:53:34;;;;;;;29.23;17.97;;;7.50;99.90;;;;;;5022829;28;20224;-82
2022/03/23 00:56:00;;;;;;;27.50;16.27;;;7.50;99.90;;;;;;5023271;28;20222;-80
2022/03/23 00:58:26;;;;;;;32.97;19.30;;;7.40;99.90;;;;;;5041153;28;20217;-81
2022/03/23 01:00:52;;;;;;;28.57;15.33;;;7.30;99.90;;;;;;5040076;28;20739;-82
2022/03/23 01:03:18;;;;;;;35.43;18.33;;;7.30;99.90;;;;;;5040948;28;20197;-81
2022/03/23 01:05:44;;;;;;;33.77;18.77;;;7.30;99.90;;;;;;5040634;28;20634;-82
2022/03/23 01:08:09;;;;;;;36.00;19.40;;;7.30;99.90;;;;;;5039760;28;20550;-82
2022/03/23 01:10:36;;;;;;;30.83;18.23;;;7.20;99.90;;;;;;5023071;28;20698;-81
2022/03/23 01:13:02;;;;;;;28.60;17.30;;;7.20;99.90;;;;;;5040699;28;20304;-81
2022/03/23 01:15:29;;;;;;;29.10;19.07;;;7.20;99.90;;;;;;5023227;28;20183;-80
2022/03/23 01:17:55;;;;;;;35.30;17.07;;;7.20;99.90;;;;;;5023663;28;20190;-81
2022/03/23 01:20:21;;;;;;;27.90;15.97;;;7.10;99.90;;;;;;5055849;28;20233;-81
2022/03/23 01:22:47;;;;;;;30.30;20.20;;;7.20;99.90;;;;;;5056196;28;20670;-81
2022/03/23 01:25:13;;;;;;;30.40;18.53;;;7.20;99.90;;;;;;5056049;28;20916;-81
2022/03/23 01:27:40;;;;;;;25.60;17.83;;;7.10;99.90;;;;;;5026618;28;20236;-81
2022/03/23 01:30:09;;;;;;;25.20;18.77;;;7.20;99.90;;;;;;5027399;28;20222;-81
2022/03/23 01:32:35;;;;;;;24.27;17.03;;;7.20;99.90;;;;;;5026854;28;20296;-81
2022/03/23 01:35:02;;;;;;;34.83;18.20;;;7.20;99.90;;;;;;5043946;28;20210;-81
2022/03/23 01:37:28;;;;;;;33.93;19.30;;;7.20;99.90;;;;;;5044422;28;20229;-82
2022/03/23 01:39:54;;;;;;;26.17;17.63;;;7.20;99.90;;;;;;5043788;28;20341;-80
2022/03/23 01:42:19;;;;;;;34.97;17.63;;;7.10;99.90;;;;;;5060068;28;20232;-81
2022/03/23 01:44:45;;;;;;;30.93;18.90;;;7.10;99.90;;;;;;5045276;28;20220;-81
2022/03/23 01:47:16;;;;;;;36.33;18.27;;;7.10;99.90;;;;;;5042793;28;20226;-81
2022/03/23 01:49:48;;;;;;;28.10;17.50;;;6.90;99.90;;;;;;5059198;28;20225;-82
2022/03/23 01:52:17;;;;;;;33.13;18.23;;;6.70;99.90;;;;;;5025848;28;20944;-81
2022/03/23 01:54:44;;;;;;;30.63;17.17;;;6.50;99.90;;;;;;5026487;28;20217;-80
2022/03/23 01:57:14;;;;;;;28.43;15.00;;;6.40;99.90;;;;;;5043278;28;20190;-80
2022/03/23 01:59:40;;;;;;;28.33;18.90;;;6.50;99.90;;;;;;5043999;28;20245;-80
2022/03/23 02:02:08;;;;;;;34.53;17.83;;;6.40;99.90;;;;;;5026523;28;20224;-80
2022/03/23 02:04:34;;;;;;;28.07;20.07;;;6.40;99.90;;;;;;5042303;28;20367;-80
2022/03/23 02:07:00;;;;;;;23.73;16.70;;;6.50;99.90;;;;;;5059336;28;20240;-80
2022/03/23 02:09:27;;;;;;;33.80;19.07;;;6.50;99.90;;;;;;5025667;28;20236;-81
2022/03/23 02:11:54;;;;;;;27.13;18.87;;;6.50;99.90;;;;;;5026095;28;20183;-80
2022/03/23 02:14:20;;;;;;;32.07;18.63;;;6.50;99.90;;;;;;5044090;28;20222;-80
2022/03/23 02:16:49;;;;;;;31.90;19.17;;;6.60;99.90;;;;;;5043497;28;20674;-81
2022/03/23 02:19:16;;;;;;;26.33;17.70;;;6.60;99.90;;;;;;5025239;28;20230;-82
2022/03/23 02:21:45;;;;;;;24.90;17.47;;;6.60;99.90;;;;;;5042485;28;20225;-80
2022/03/23 02:24:12;;;;;;;26.80;19.83;;;6.60;99.90;;;;;;5044443;28;20205;-80
2022/03/23 02:26:38;;;;;;;30.00;19.93;;;6.40;99.90;;;;;;5058752;28;20244;-80
2022/03/23 02:29:07;;;;;;;24.13;19.83;;;6.40;99.90;;;;;;5043753;28;20275;-80
2022/03/23 02:31:34;;;;;;;27.77;17.03;;;6.40;99.90;;;;;;5025146;28;20210;-80
2022/03/23 02:34:00;;;;;;;32.10;19.27;;;6.40;99.90;;;;;;5025318;28;20221;-80
2022/03/23 02:36:25;;;;;;;35.50;19.03;;;6.30;99.90;;;;;;5041822;28;20209;-80
2022/03/23 02:38:51;;;;;;;23.77;16.10;;;6.30;99.90;;;;;;5059159;28;20186;-82
2022/03/23 02:41:17;;;;;;;18.87;15.03;;;6.20;99.90;;;;;;5024879;28;20232;-81
2022/03/23 02:43:43;;;;;;;24.70;17.60;;;6.20;99.90;;;;;;5042420;28;20233;-81
2022/03/23 02:46:17;;;;;;;26.60;14.93;;;6.10;99.90;;;;;;5024767;28;20226;-80
2022/03/23 02:48:44;;;;;;;23.60;15.77;;;6.10;99.90;;;;;;5057265;28;20275;-82
2022/03/23 02:51:10;;;;;;;29.93;20.07;;;6.10;99.90;;;;;;5025526;28;20236;-80
2022/03/23 03:02:20;;;;;;;21.63;15.00;;;6.10;99.90;;;;;;5042476;28;21052;-81
2022/03/23 03:04:47;;;;;;;29.43;17.43;;;6.20;99.90;;;;;;5025307;28;20217;-83
2022/03/23 03:07:13;;;;;;;42.80;18.07;;;6.20;99.90;;;;;;5024647;28;20708;-81
2022/03/23 03:09:39;;;;;;;28.87;17.13;;;6.20;99.90;;;;;;5024490;28;20248;-80
2022/03/23 03:12:05;;;;;;;23.77;16.20;;;6.20;99.90;;;;;;5020213;28;20638;-81
2022/03/23 03:14:31;;;;;;;25.80;16.87;;;6.20;99.90;;;;;;5011126;28;20214;-80
2022/03/23 03:16:57;;;;;;;30.63;18.90;;;6.20;99.90;;;;;;4982187;28;20305;-81
2022/03/23 03:19:23;;;;;;;24.83;16.60;;;6.20;99.90;;;;;;5030825;28;20351;-81
2022/03/23 03:21:48;;;;;;;33.37;17.40;;;6.30;99.90;;;;;;5024369;28;20682;-81
2022/03/23 03:24:14;;;;;;;30.67;19.10;;;6.30;99.90;;;;;;5058270;28;20720;-81
2022/03/23 03:26:40;;;;;;;36.20;16.93;;;6.30;99.90;;;;;;5057142;28;20214;-80
2022/03/23 03:29:05;;;;;;;38.90;19.77;;;6.30;99.90;;;;;;5057479;28;20767;-83
2022/03/23 03:31:31;;;;;;;23.37;18.03;;;6.20;99.90;;;;;;5041196;28;20684;-81
2022/03/23 03:33:57;;;;;;;25.70;20.90;;;6.20;99.90;;;;;;5024102;28;20213;-81
2022/03/23 03:36:24;;;;;;;30.47;16.13;;;6.30;99.90;;;;;;5041131;28;20292;-81
2022/03/23 03:38:51;;;;;;;39.50;19.33;;;6.40;99.90;;;;;;5042924;28;20263;-81
2022/03/23 03:41:17;;;;;;;33.27;16.67;;;6.40;99.90;;;;;;5041342;28;20713;-81
2022/03/23 03:43:44;;;;;;;28.00;15.57;;;6.30;99.90;;;;;;5057285;28;20670;-81
2022/03/23 03:46:11;;;;;;;21.83;15.10;;;6.10;99.90;;;;;;5041981;28;20278;-81
2022/03/23 03:48:40;;;;;;;44.10;22.27;;;6.00;99.90;;;;;;5041380;28;20213;-81
2022/03/23 03:51:07;;;;;;;29.13;16.77;;;6.30;99.90;;;;;;5024527;28;20209;-82
2022/03/23 03:53:33;;;;;;;33.60;13.80;;;6.40;99.90;;;;;;5040510;28;20324;-82
2022/03/23 03:55:59;;;;;;;34.30;16.77;;;6.10;99.90;;;;;;5041841;28;20272;-81
2022/03/23 03:58:25;;;;;;;23.27;15.57;;;5.90;99.90;;;;;;5023550;28;20226;-81
2022/03/23 04:00:51;;;;;;;25.47;14.33;;;5.90;99.90;;;;;;5057304;28;20227;-82
2022/03/23 04:03:17;;;;;;;27.30;14.33;;;5.80;99.90;;;;;;5023326;28;20192;-81
2022/03/23 04:05:43;;;;;;;36.03;22.10;;;5.90;99.90;;;;;;5057473;28;20631;-81
2022/03/23 04:08:09;;;;;;;24.27;15.47;;;5.90;99.90;;;;;;5041398;28;20272;-81
2022/03/23 04:10:36;;;;;;;27.03;14.17;;;5.90;99.90;;;;;;5040925;28;20265;-80
2022/03/23 04:13:02;;;;;;;27.90;17.80;;;5.80;99.90;;;;;;5023182;28;20331;-81
2022/03/23 04:15:27;;;;;;;27.90;17.90;;;5.80;99.90;;;;;;5057170;28;20198;-81
2022/03/23 04:17:54;;;;;;;34.80;18.23;;;5.80;99.90;;;;;;5040406;28;20466;-80
2022/03/23 04:20:21;;;;;;;40.37;20.00;;;5.80;99.90;;;;;;5023700;28;20225;-82
2022/03/23 04:22:46;;;;;;;26.13;14.57;;;5.80;99.90;;;;;;5056552;28;20712;-81
2022/03/23 04:25:14;;;;;;;30.23;15.23;;;5.80;99.90;;;;;;5039290;28;20214;-81
2022/03/23 04:27:57;;;;;;;38.50;17.30;;;5.80;99.90;;;;;;5041014;28;20232;-81
2022/03/23 04:30:27;;;;;;;29.83;15.63;;;5.70;99.90;;;;;;5023448;28;20214;-81
2022/03/23 04:32:53;;;;;;;26.93;19.57;;;5.80;99.90;;;;;;5041543;28;20622;-81
2022/03/23 04:35:21;;;;;;;28.33;18.67;;;5.80;99.90;;;;;;5041209;28;20252;-81
2022/03/23 04:37:46;;;;;;;25.80;14.97;;;5.80;99.90;;;;;;5041119;28;20320;-80
2022/03/23 04:40:14;;;;;;;24.00;15.80;;;5.80;99.90;;;;;;5055693;28;20915;-81
2022/03/23 04:42:41;;;;;;;30.63;20.17;;;5.80;99.90;;;;;;5023086;28;20469;-81
2022/03/23 04:45:07;;;;;;;27.47;15.97;;;5.90;99.90;;;;;;5056799;28;20182;-81
2022/03/23 04:47:34;;;;;;;28.93;21.03;;;5.90;99.90;;;;;;5040088;28;20882;-80
2022/03/23 04:50:00;;;;;;;33.07;19.77;;;5.80;99.90;;;;;;5039575;28;20584;-80
2022/03/23 04:52:26;;;;;;;25.00;18.77;;;5.80;99.90;;;;;;5023629;28;20214;-81
2022/03/23 04:54:56;;;;;;;30.30;18.43;;;5.90;99.90;;;;;;5055864;28;20909;-81
2022/03/23 04:57:23;;;;;;;33.87;17.73;;;6.10;99.90;;;;;;5023565;28;20240;-81
2022/03/23 04:59:50;;;;;;;28.53;17.73;;;6.10;99.90;;;;;;5057025;28;20208;-80
2022/03/23 05:02:15;;;;;;;36.27;21.17;;;6.10;99.90;;;;;;5026081;28;20258;-81
2022/03/23 05:04:41;;;;;;;28.90;19.07;;;6.10;99.90;;;;;;5027061;28;20709;-81
2022/03/23 05:07:07;;;;;;;22.20;16.17;;;6.10;99.90;;;;;;5060271;28;20226;-80
2022/03/23 05:09:32;;;;;;;26.43;16.23;;;6.10;99.90;;;;;;5043446;28;20276;-80
2022/03/23 05:11:58;;;;;;;28.37;16.70;;;6.00;99.90;;;;;;5045424;28;20285;-80
2022/03/23 05:14:24;;;;;;;31.00;17.27;;;6.00;99.90;;;;;;5043497;28;20275;-80
2022/03/23 05:16:50;;;;;;;32.73;19.67;;;6.10;99.90;;;;;;5044994;28;20225;-80
2022/03/23 05:19:15;;;;;;;36.93;20.47;;;6.10;99.90;;;;;;5026784;28;20225;-81
2022/03/23 05:21:41;;;;;;;31.77;17.87;;;6.10;99.90;;;;;;5043513;28;20222;-81
2022/03/23 05:24:07;;;;;;;34.60;17.33;;;6.20;99.90;;;;;;5044358;28;20837;-82
2022/03/23 05:26:32;;;;;;;26.00;17.27;;;6.20;99.90;;;;;;5060391;28;20221;-81
2022/03/23 05:28:58;;;;;;;31.83;17.53;;;6.30;99.90;;;;;;5026494;28;20674;-82
2022/03/23 05:31:24;;;;;;;26.57;16.67;;;6.30;99.90;;;;;;5025248;28;20286;-81
2022/03/23 05:33:49;;;;;;;30.17;18.83;;;6.30;99.90;;;;;;5058936;28;20301;-81
2022/03/23 05:36:16;;;;;;;30.77;17.07;;;6.30;99.90;;;;;;5042873;28;20315;-81
2022/03/23 05:38:42;;;;;;;35.77;20.60;;;6.30;99.90;;;;;;5027248;28;20739;-81
2022/03/23 05:41:07;;;;;;;35.73;20.60;;;6.40;99.90;;;;;;5043741;28;20329;-82
2022/03/23 05:43:33;;;;;;;30.30;17.03;;;6.40;99.90;;;;;;5026788;28;20260;-81
2022/03/23 05:45:59;;;;;;;58.93;17.93;;;6.50;99.90;;;;;;5059447;28;20229;-81
2022/03/23 05:48:25;;;;;;;42.00;17.63;;;6.40;99.90;;;;;;5026133;28;20270;-81
2022/03/23 05:50:51;;;;;;;60.70;15.83;;;6.20;99.90;;;;;;5044810;28;20221;-81
2022/03/23 05:53:16;;;;;;;31.87;16.50;;;6.10;99.90;;;;;;5026456;28;20221;-81
2022/03/23 05:55:42;;;;;;;56.73;17.10;;;5.90;99.90;;;;;;5042686;28;20311;-81
2022/03/23 05:58:09;;;;;;;23.03;14.53;;;5.90;99.90;;;;;;5042745;28;20218;-83
2022/03/23 06:00:35;;;;;;;23.83;14.77;;;5.90;99.90;;;;;;5025898;28;20278;-84
2022/03/23 06:03:01;;;;;;;25.13;15.17;;;6.10;99.90;;;;;;5045168;28;20202;-84
2022/03/23 06:05:27;;;;;;;24.67;14.23;;;6.30;99.90;;;;;;5025998;28;20563;-83
2022/03/23 06:07:52;;;;;;;78.50;15.23;;;6.60;99.90;;;;;;5026073;28;20221;-83
2022/03/23 06:10:18;;;;;;;22.30;14.00;;;6.70;99.90;;;;;;5058981;28;20359;-83
2022/03/23 06:12:44;;;;;;;19.77;12.17;;;6.60;99.90;;;;;;5045340;28;20213;-83
2022/03/23 06:15:11;;;;;;;33.37;13.37;;;6.60;99.90;;;;;;5059842;28;20689;-83
2022/03/23 06:17:38;;;;;;;30.93;15.00;;;6.60;99.90;;;;;;5026320;28;20228;-83
2022/03/23 06:20:05;;;;;;;28.13;18.17;;;6.90;99.90;;;;;;5059292;28;20245;-82
2022/03/23 06:22:32;;;;;;;30.00;17.60;;;7.20;99.90;;;;;;5026852;28;20234;-83
2022/03/23 06:24:58;;;;;;;30.03;15.90;;;7.40;99.90;;;;;;5042534;28;20221;-83
2022/03/23 06:27:25;;;;;;;33.27;13.07;;;7.60;99.90;;;;;;5026830;28;20197;-84
2022/03/23 06:29:50;;;;;;;31.80;16.63;;;7.90;99.90;;;;;;5043727;28;20206;-82
2022/03/23 06:32:17;;;;;;;30.13;17.07;;;8.20;99.90;;;;;;5041976;28;20630;-84
2022/03/23 06:34:43;;;;;;;22.57;13.27;;;8.50;99.90;;;;;;5043206;28;20622;-84
2022/03/23 06:37:09;;;;;;;28.70;18.83;;;8.50;99.90;;;;;;5041916;28;20405;-85
2022/03/23 06:39:35;;;;;;;40.43;21.63;;;8.80;99.90;;;;;;5026453;28;20233;-82
2022/03/23 06:42:01;;;;;;;25.83;16.80;;;9.00;99.90;;;;;;5059320;28;20241;-81
2022/03/23 06:44:26;;;;;;;32.83;20.77;;;9.40;99.90;;;;;;5044647;28;20486;-84
2022/03/23 06:46:53;;;;;;;43.17;19.50;;;10.10;99.90;;;;;;5058705;28;20600;-84
2022/03/23 06:49:19;;;;;;;42.30;23.87;;;10.80;99.90;;;;;;5041560;28;20222;-80
2022/03/23 06:51:45;;;;;;;40.70;21.37;;;11.30;99.90;;;;;;5041904;28;20225;-84
2022/03/23 06:54:10;;;;;;;52.40;28.10;;;11.80;99.90;;;;;;5043982;28;20662;-83
2022/03/23 06:56:36;;;;;;;62.07;27.43;;;12.50;99.90;;;;;;5059716;28;20228;-81
2022/03/23 06:59:04;;;;;;;63.60;28.37;;;13.30;99.90;;;;;;5025052;28;20225;-81
2022/03/23 07:01:30;;;;;;;50.27;27.70;;;13.60;99.90;;;;;;5057570;28;20228;-80
2022/03/23 07:03:56;;;;;;;38.63;21.97;;;13.60;99.90;;;;;;5057939;28;20222;-81
2022/03/23 07:06:22;;;;;;;41.20;23.37;;;14.30;99.90;;;;;;5024703;28;20193;-81
2022/03/23 07:11:32;;;;;;;50.93;25.63;;;15.10;99.90;;;;;;5042989;28;20484;-81
2022/03/23 07:13:58;;;;;;;43.67;24.97;;;15.70;99.90;;;;;;5042127;28;20224;-82
2022/03/23 07:16:23;;;;;;;41.53;25.60;;;16.10;99.90;;;;;;5024751;28;20764;-81
2022/03/23 07:18:49;;;;;;;42.53;22.20;;;15.40;99.90;;;;;;5041323;28;20685;-81
2022/03/23 07:21:15;;;;;;;40.73;23.10;;;14.90;99.90;;;;;;5060457;28;20193;-84
2022/03/23 07:23:41;;;;;;;41.97;23.30;;;15.10;99.90;;;;;;5026785;28;20234;-83
2022/03/23 07:26:08;;;;;;;29.17;19.13;;;15.40;99.90;;;;;;5028874;28;20271;-83
2022/03/23 07:28:34;;;;;;;41.00;21.83;;;15.70;99.90;;;;;;5043362;28;20214;-84
2022/03/23 07:31:00;;;;;;;34.27;20.97;;;16.00;99.90;;;;;;5059798;28;20267;-85
2022/03/23 07:33:26;;;;;;;40.43;20.10;;;16.50;99.90;;;;;;5041744;28;20186;-84
2022/03/23 07:35:52;;;;;;;40.07;20.90;;;16.70;99.90;;;;;;5019942;28;20664;-84
2022/03/23 07:38:18;;;;;;;36.60;20.87;;;17.00;99.90;;;;;;5058969;28;20296;-84
2022/03/23 07:40:44;;;;;;;44.70;23.00;;;17.10;99.90;;;;;;5058653;28;20331;-86
2022/03/23 07:43:10;;;;;;;46.33;22.20;;;17.40;99.90;;;;;;5025691;28;20612;-83
2022/03/23 07:45:36;;;;;;;41.07;23.33;;;17.60;99.90;;;;;;5059035;28;20886;-83
2022/03/23 07:48:02;;;;;;;38.83;19.37;;;17.80;99.90;;;;;;5042640;28;20694;-84
2022/03/23 07:50:27;;;;;;;38.60;23.17;;;17.60;99.90;;;;;;5041990;28;20354;-85
2022/03/23 07:52:54;;;;;;;42.77;22.90;;;17.00;99.90;;;;;;5024894;28;20229;-86
2022/03/23 07:55:20;;;;;;;35.47;21.70;;;16.90;99.90;;;;;;5057883;28;20229;-81
2022/03/23 07:57:46;;;;;;;38.93;23.77;;;17.10;99.90;;;;;;5042408;28;20218;-88
2022/03/23 08:00:13;;;;;;;40.03;22.10;;;18.10;99.90;;;;;;5028934;28;20317;-89
2022/03/23 08:02:40;;;;;;;41.40;21.47;;;18.70;99.90;;;;;;5064014;28;20681;-90
2022/03/23 08:05:07;;;;;;;40.67;22.10;;;19.20;99.90;;;;;;5080461;28;20716;-90
2022/03/23 08:07:33;;;;;;;40.00;21.27;;;19.30;99.90;;;;;;5031447;28;20221;-91
2022/03/23 08:09:59;;;;;;;39.43;21.27;;;20.00;99.90;;;;;;5065019;28;20240;-90
2022/03/23 08:12:25;;;;;;;41.93;23.50;;;19.60;99.90;;;;;;5064743;28;20189;-91
2022/03/23 08:14:51;;;;;;;37.33;19.10;;;19.30;99.90;;;;;;5031424;28;20184;-92
2022/03/23 08:17:16;;;;;;;45.10;22.80;;;19.40;99.90;;;;;;5043409;28;20696;-90
2022/03/23 08:19:42;;;;;;;44.80;22.47;;;19.80;99.90;;;;;;5026680;28;20703;-91
2022/03/23 08:22:09;;;;;;;33.77;19.43;;;20.10;99.90;;;;;;5062715;28;20225;-89
2022/03/23 08:24:35;;;;;;;32.60;20.23;;;20.50;99.90;;;;;;5046101;28;21386;-91
2022/03/23 08:27:00;;;;;;;35.20;20.60;;;20.70;99.90;;;;;;5030615;28;20217;-90
2022/03/23 08:29:26;;;;;;;39.77;20.70;;;20.30;99.90;;;;;;5022232;28;20236;-90
2022/03/23 08:31:52;;;;;;;39.40;22.73;;;19.50;99.90;;;;;;5036064;28;20591;-90
2022/03/23 08:34:35;;;;;;;32.67;19.47;;;19.10;99.90;;;;;;5044477;28;21057;-90
2022/03/23 08:37:02;;;;;;;41.03;22.03;;;19.60;99.90;;;;;;5061294;28;20221;-90
2022/03/23 08:39:28;;;;;;;39.77;21.87;;;19.70;99.90;;;;;;5034804;28;20205;-90
2022/03/23 08:42:14;;;;;;;35.97;21.07;;;19.60;99.90;;;;;;5062217;28;20239;-92
2022/03/23 08:44:41;;;;;;;35.33;20.57;;;19.70;99.90;;;;;;5044544;28;20298;-91
2022/03/23 08:47:08;;;;;;;39.97;21.00;;;20.20;99.90;;;;;;5037166;28;20677;-91
2022/03/23 08:49:34;;;;;;;36.00;21.70;;;20.60;99.90;;;;;;5061923;28;20822;-90
2022/03/23 08:52:03;;;;;;;38.30;19.47;;;20.80;99.90;;;;;;5043583;28;20983;-89
2022/03/23 08:54:31;;;;;;;38.60;22.13;;;21.50;99.90;;;;;;5066056;28;20208;-90
2022/03/23 08:56:58;;;;;;;36.00;21.47;;;22.40;99.90;;;;;;5047649;28;20653;-90
2022/03/23 08:59:23;;;;;;;31.20;18.37;;;22.60;99.90;;;;;;5022207;28;20669;-90
2022/03/23 09:01:50;;;;;;;35.53;19.17;;;22.80;99.90;;;;;;5030450;28;20278;-90
2022/03/23 09:04:16;;;;;;;32.47;20.23;;;22.60;99.90;;;;;;5046756;28;20307;-90
2022/03/23 09:06:42;;;;;;;34.67;19.23;;;21.80;99.90;;;;;;5029707;28;20843;-92
2022/03/23 09:09:08;;;;;;;34.40;19.80;;;22.20;99.90;;;;;;5063909;28;20274;-92
2022/03/23 09:11:33;;;;;;;30.83;18.77;;;22.30;99.90;;;;;;5030206;28;20219;-91
2022/03/23 09:13:59;;;;;;;31.00;18.93;;;21.90;99.90;;;;;;5027855;28;20304;-91
2022/03/23 09:16:25;;;;;;;29.40;17.27;;;22.20;99.90;;;;;;5058619;28;20228;-91
2022/03/23 09:18:51;;;;;;;32.93;18.47;;;21.50;99.90;;;;;;5044068;28;20224;-93
2022/03/23 09:21:17;;;;;;;32.37;18.30;;;20.80;99.90;;;;;;5060486;28;20697;-92
2022/03/23 09:23:43;;;;;;;31.73;16.67;;;19.90;99.90;;;;;;5063706;28;20318;-91
2022/03/23 09:26:11;;;;;;;27.37;15.83;;;19.40;99.90;;;;;;5045756;28;20232;-93
2022/03/23 09:28:37;;;;;;;29.90;16.63;;;18.90;99.90;;;;;;5063478;28;20512;-90
2022/03/23 09:31:04;;;;;;;40.43;16.07;;;18.40;99.90;;;;;;5027820;28;20232;-90
2022/03/23 09:33:29;;;;;;;25.30;14.47;;;18.00;99.90;;;;;;5044508;28;20204;-89
2022/03/23 09:35:55;;;;;;;27.30;14.77;;;18.20;99.90;;;;;;5030001;28;20622;-88
2022/03/23 09:38:21;;;;;;;28.43;14.67;;;18.50;99.90;;;;;;5045285;28;20225;-88
2022/03/23 09:40:51;;;;;;;26.23;15.10;;;18.90;99.90;;;;;;5078653;28;20245;-88
2022/03/23 09:43:21;;;;;;;29.93;15.93;;;19.20;99.90;;;;;;5053237;28;20217;-89
2022/03/23 09:45:47;;;;;;;30.93;15.67;;;20.10;99.90;;;;;;5053447;28;20224;-90
2022/03/23 09:48:16;;;;;;;28.80;14.80;;;20.60;99.90;;;;;;5031207;28;20664;-88
2022/03/23 09:50:48;;;;;;;29.60;16.13;;;21.10;99.90;;;;;;5066229;28;20879;-90
2022/03/23 09:53:14;;;;;;;25.40;14.70;;;21.30;99.90;;;;;;5048952;28;20570;-87
2022/03/23 09:55:42;;;;;;;26.20;15.13;;;20.80;99.90;;;;;;5048526;28;20217;-88
2022/03/23 09:58:09;;;;;;;29.37;17.03;;;20.60;99.90;;;;;;5049274;28;20607;-89
2022/03/23 10:00:40;;;;;;;26.97;15.13;;;20.80;99.90;;;;;;5032595;28;20200;-87
2022/03/23 10:03:12;;;;;;;27.77;14.07;;;21.40;99.90;;;;;;5048788;28;20177;-89
2022/03/23 10:06:15;;;;;;;22.53;13.77;;;21.40;99.90;;;;;;5048990;28;20244;-91
2022/03/23 10:09:05;;;;;;;30.23;14.83;;;21.80;99.90;;;;;;5041720;28;20213;-87
2022/03/23 10:12:09;;;;;;;26.50;15.57;;;22.20;99.90;;;;;;5038910;28;20228;-88
2022/03/23 10:15:13;;;;;;;27.37;15.63;;;22.00;99.90;;;;;;5067171;28;20220;-87
2022/03/23 10:17:44;;;;;;;26.63;15.73;;;21.80;99.90;;;;;;5063208;28;20402;-88
2022/03/23 10:20:14;;;;;;;31.07;16.27;;;21.60;99.90;;;;;;5045533;28;20229;-91
2022/03/23 10:22:48;;;;;;;28.63;16.43;;;21.90;99.90;;;;;;5030946;28;20229;-87
2022/03/23 10:25:14;;;;;;;28.60;16.10;;;21.80;99.90;;;;;;5047227;28;20224;-87
2022/03/23 10:27:40;;;;;;;28.70;15.40;;;21.50;99.90;;;;;;5065183;28;20232;-87
2022/03/23 10:30:07;;;;;;;28.07;14.73;;;22.00;99.90;;;;;;5024945;28;20556;-87
2022/03/23 10:32:37;;;;;;;28.93;15.77;;;21.80;99.90;;;;;;5042195;28;20213;-86
2022/03/23 10:35:09;;;;;;;29.50;15.10;;;21.70;99.90;;;;;;5047901;28;20213;-86
2022/03/23 10:37:35;;;;;;;31.30;15.13;;;22.30;99.90;;;;;;5031774;28;20697;-86
2022/03/23 10:40:07;;;;;;;30.87;14.07;;;22.60;99.90;;;;;;5047947;28;20880;-87
2022/03/23 10:42:35;;;;;;;28.23;13.93;;;21.80;99.90;;;;;;5065508;28;20200;-86
2022/03/23 10:45:15;;;;;;;26.23;14.75;;;21.80;99.90;;;;;;5047886;28;20240;-87
2022/03/23 10:47:43;;;;;;;23.57;13.80;;;21.90;99.90;;;;;;5047907;28;20244;-87
2022/03/23 10:50:21;;;;;;;29.57;15.57;;;22.10;99.90;;;;;;5055997;28;20599;-88
2022/03/23 10:52:53;;;;;;;32.10;15.70;;;22.30;99.90;;;;;;5047702;28;20220;-86
2022/03/23 10:55:20;;;;;;;31.15;16.08;;;21.80;99.90;;;;;;5055896;28;20689;-87
2022/03/23 10:57:58;;;;;;;28.50;15.33;;;21.80;99.90;;;;;;5064603;28;20216;-87
2022/03/23 11:00:38;;;;;;;29.10;14.67;;;22.00;99.90;;;;;;5047284;28;20189;-87
2022/03/23 11:03:07;;;;;;;26.60;13.73;;;21.20;99.90;;;;;;5064778;28;20204;-86
2022/03/23 11:05:38;;;;;;;21.60;12.43;;;21.10;99.90;;;;;;5047306;28;20267;-88
2022/03/23 11:08:07;;;;;;;22.85;12.57;;;20.30;99.90;;;;;;5056020;28;20311;-89
2022/03/23 11:16:10;;;;;;;26.73;12.27;;;20.90;99.90;;;;;;5064685;28;20281;-85
2022/03/23 11:18:36;;;;;;;19.75;10.38;;;21.00;99.90;;;;;;5061815;28;20228;-85
2022/03/23 11:21:03;;;;;;;22.90;11.47;;;21.10;99.90;;;;;;5044294;28;20228;-84
2022/03/23 11:23:36;;;;;;;16.90;8.63;;;20.60;99.90;;;;;;5061522;28;20251;-89
2022/03/23 11:26:08;;;;;;;16.37;8.63;;;20.70;99.90;;;;;;5047239;28;20270;-88
2022/03/23 11:28:36;;;;;;;22.60;11.27;;;20.50;99.90;;;;;;5065700;28;20221;-88
2022/03/23 11:31:05;;;;;;;23.27;11.73;;;20.70;99.90;;;;;;5047013;28;20237;-88
2022/03/23 11:33:32;;;;;;;19.30;11.25;;;21.00;99.90;;;;;;5046122;28;20209;-89
2022/03/23 11:35:58;;;;;;;22.83;11.60;;;21.90;99.90;;;;;;5054751;28;20196;-89
2022/03/23 11:38:26;;;;;;;20.33;10.27;;;21.10;99.90;;;;;;5045049;28;20213;-89
2022/03/23 11:40:52;;;;;;;16.38;8.93;;;20.80;99.90;;;;;;5053919;28;20352;-88
2022/03/23 11:43:25;;;;;;;15.90;10.60;;;20.10;99.90;;;;;;5062292;28;20224;-85
2022/03/23 11:45:52;;;;;;;19.73;10.70;;;20.70;99.90;;;;;;5043772;28;20315;-85
2022/03/23 11:48:39;;;;;;;23.07;11.70;;;21.10;99.90;;;;;;5043657;28;20685;-86
2022/03/23 11:51:23;;;;;;;18.92;10.70;;;21.20;99.90;;;;;;5064455;28;20205;-87
2022/03/23 11:55:36;;;;;;;19.85;10.07;;;21.70;99.90;;;;;;5061593;28;20606;-88
2022/03/23 11:57:16;;;;;;;17.90;9.50;;;21.50;99.90;;;;;;5061730;28;20283;-88
2022/03/23 11:59:43;;;;;;;14.30;8.98;;;20.30;99.90;;;;;;5060717;28;20208;-87
2022/03/23 12:02:09;;;;;;;17.37;10.07;;;20.10;99.90;;;;;;5043355;28;20218;-88
2022/03/23 12:04:35;;;;;;;17.00;8.85;;;20.10;99.90;;;;;;5027404;28;20225;-90
2022/03/23 12:07:09;;;;;;;17.35;9.65;;;20.40;99.90;;;;;;5080787;28;20228;-90
2022/03/23 12:09:40;;;;;;;20.05;10.02;;;21.20;99.90;;;;;;5034192;28;20189;-86
2022/03/23 12:12:34;;;;;;;18.20;8.85;;;21.50;99.90;;;;;;5060755;28;20192;-85
2022/03/23 12:15:30;;;;;;;19.00;9.68;;;20.90;99.90;;;;;;5043909;28;20328;-87
2022/03/23 12:17:56;;;;;;;15.93;9.40;;;21.00;99.90;;;;;;5023361;28;20660;-87
2022/03/23 12:20:31;;;;;;;13.80;8.90;;;21.10;99.90;;;;;;5043085;28;20232;-86
2022/03/23 12:23:15;;;;;;;16.67;9.95;;;20.80;99.90;;;;;;5066252;28;20209;-89
2022/03/23 12:26:14;;;;;;;16.13;9.77;;;20.60;99.90;;;;;;5043959;28;20316;-88
2022/03/23 12:28:50;;;;;;;18.50;9.60;;;20.00;99.90;;;;;;5060700;28;20232;-88
2022/03/23 12:31:16;;;;;;;21.50;10.18;;;19.70;99.90;;;;;;5043796;28;20286;-88
2022/03/23 12:34:06;;;;;;;21.40;11.07;;;20.00;99.90;;;;;;5061437;28;21016;-88
2022/03/23 12:36:56;;;;;;;19.53;11.50;;;20.80;99.90;;;;;;5076715;28;20173;-88
2022/03/23 12:39:33;;;;;;;24.73;12.07;;;20.40;99.90;;;;;;5042810;28;20177;-89
2022/03/23 12:42:17;;;;;;;20.23;10.30;;;20.10;99.90;;;;;;5061570;28;20232;-88
2022/03/23 12:44:49;;;;;;;21.40;10.07;;;20.10;99.90;;;;;;5062517;28;20227;-90
2022/03/23 12:47:21;;;;;;;22.40;10.63;;;20.60;99.90;;;;;;5047821;28;20217;-95
2022/03/23 12:58:17;;;;;;;26.03;10.60;;;20.30;99.90;;;;;;5064709;28;20487;-88
2022/03/23 13:00:51;;;;;;;17.77;9.60;;;20.30;99.90;;;;;;5046647;28;20212;-90
2022/03/23 13:03:20;;;;;;;16.63;9.33;;;20.00;99.90;;;;;;5054122;28;20299;-87